sensor_id;sensor_type;location;lat;lon;timestamp;P1;durP1;ratioP1;P2;durP2;ratioP2
18899;SDS011;9582;52.018;6.306;2023-08-24T00:00:28;8.32;;;6.28;;
18899;SDS011;9582;52.018;6.306;2023-08-24T00:02:55;8.85;;;6.93;;
18899;SDS011;9582;52.018;6.306;2023-08-24T00:05:23;8.98;;;6.13;;
18899;SDS011;9582;52.018;6.306;2023-08-24T00:07:49;9.30;;;5.68;;
18899;SDS011;9582;52.018;6.306;2023-08-24T00:10:16;8.55;;;6.00;;
18899;SDS011;9582;52.018;6.306;2023-08-24T00:12:43;7.57;;;6.38;;
18899;SDS011;9582;52.018;6.306;2023-08-24T00:15:11;8.20;;;6.57;;
18899;SDS011;9582;52.018;6.306;2023-08-24T00:17:38;9.25;;;6.90;;
18899;SDS011;9582;52.018;6.306;2023-08-24T00:20:06;13.60;;;7.63;;
18899;SDS011;9582;52.018;6.306;2023-08-24T00:22:36;10.85;;;8.35;;
18899;SDS011;9582;52.018;6.306;2023-08-24T00:25:03;9.88;;;8.70;;
18899;SDS011;9582;52.018;6.306;2023-08-24T00:27:30;10.95;;;9.02;;
18899;SDS011;9582;52.018;6.306;2023-08-24T00:29:57;13.55;;;8.27;;
18899;SDS011;9582;52.018;6.306;2023-08-24T00:32:25;7.68;;;6.78;;
18899;SDS011;9582;52.018;6.306;2023-08-24T00:34:52;12.45;;;8.05;;
18899;SDS011;9582;52.018;6.306;2023-08-24T00:37:19;9.65;;;8.25;;
18899;SDS011;9582;52.018;6.306;2023-08-24T00:39:46;11.98;;;8.57;;
18899;SDS011;9582;52.018;6.306;2023-08-24T00:42:13;12.18;;;9.07;;
18899;SDS011;9582;52.018;6.306;2023-08-24T00:44:40;13.55;;;8.85;;
18899;SDS011;9582;52.018;6.306;2023-08-24T00:47:08;11.27;;;8.55;;
18899;SDS011;9582;52.018;6.306;2023-08-24T00:49:36;10.00;;;8.70;;
18899;SDS011;9582;52.018;6.306;2023-08-24T00:52:03;9.13;;;7.15;;
18899;SDS011;9582;52.018;6.306;2023-08-24T00:54:30;12.70;;;8.43;;
18899;SDS011;9582;52.018;6.306;2023-08-24T00:56:56;13.10;;;8.85;;
18899;SDS011;9582;52.018;6.306;2023-08-24T00:59:23;8.63;;;7.43;;
18899;SDS011;9582;52.018;6.306;2023-08-24T01:01:49;9.00;;;7.45;;
18899;SDS011;9582;52.018;6.306;2023-08-24T01:04:17;10.10;;;7.15;;
18899;SDS011;9582;52.018;6.306;2023-08-24T01:06:45;9.43;;;7.18;;
18899;SDS011;9582;52.018;6.306;2023-08-24T01:09:11;11.15;;;8.25;;
18899;SDS011;9582;52.018;6.306;2023-08-24T01:11:41;8.75;;;7.82;;
18899;SDS011;9582;52.018;6.306;2023-08-24T01:14:18;9.43;;;7.57;;
18899;SDS011;9582;52.018;6.306;2023-08-24T01:16:50;10.45;;;8.95;;
18899;SDS011;9582;52.018;6.306;2023-08-24T01:19:22;9.90;;;8.48;;
18899;SDS011;9582;52.018;6.306;2023-08-24T01:22:05;9.52;;;8.27;;
18899;SDS011;9582;52.018;6.306;2023-08-24T01:24:42;9.93;;;8.40;;
18899;SDS011;9582;52.018;6.306;2023-08-24T01:27:14;10.40;;;7.85;;
18899;SDS011;9582;52.018;6.306;2023-08-24T01:29:41;10.07;;;8.65;;
18899;SDS011;9582;52.018;6.306;2023-08-24T01:32:09;9.32;;;7.90;;
18899;SDS011;9582;52.018;6.306;2023-08-24T01:34:36;11.48;;;8.20;;
18899;SDS011;9582;52.018;6.306;2023-08-24T01:37:03;10.30;;;7.80;;
18899;SDS011;9582;52.018;6.306;2023-08-24T01:39:31;13.38;;;9.85;;
18899;SDS011;9582;52.018;6.306;2023-08-24T01:42:07;14.63;;;10.77;;
18899;SDS011;9582;52.018;6.306;2023-08-24T01:44:44;14.13;;;11.35;;
18899;SDS011;9582;52.018;6.306;2023-08-24T01:47:15;11.18;;;9.90;;
18899;SDS011;9582;52.018;6.306;2023-08-24T01:49:44;9.73;;;8.82;;
18899;SDS011;9582;52.018;6.306;2023-08-24T01:52:12;17.15;;;10.90;;
18899;SDS011;9582;52.018;6.306;2023-08-24T01:54:39;10.35;;;9.10;;
18899;SDS011;9582;52.018;6.306;2023-08-24T01:57:06;11.88;;;8.95;;
18899;SDS011;9582;52.018;6.306;2023-08-24T01:59:33;10.98;;;9.05;;
18899;SDS011;9582;52.018;6.306;2023-08-24T02:02:01;10.70;;;8.57;;
18899;SDS011;9582;52.018;6.306;2023-08-24T02:04:28;12.80;;;11.27;;
18899;SDS011;9582;52.018;6.306;2023-08-24T02:06:54;14.95;;;11.05;;
18899;SDS011;9582;52.018;6.306;2023-08-24T02:09:21;15.20;;;10.38;;
18899;SDS011;9582;52.018;6.306;2023-08-24T02:11:47;15.18;;;11.30;;
18899;SDS011;9582;52.018;6.306;2023-08-24T02:14:14;12.98;;;11.60;;
18899;SDS011;9582;52.018;6.306;2023-08-24T02:16:40;14.10;;;11.48;;
18899;SDS011;9582;52.018;6.306;2023-08-24T02:19:08;13.02;;;10.30;;
18899;SDS011;9582;52.018;6.306;2023-08-24T02:21:35;10.27;;;8.68;;
18899;SDS011;9582;52.018;6.306;2023-08-24T02:24:02;24.85;;;9.85;;
18899;SDS011;9582;52.018;6.306;2023-08-24T02:26:30;10.23;;;8.55;;
18899;SDS011;9582;52.018;6.306;2023-08-24T02:28:56;10.70;;;8.52;;
18899;SDS011;9582;52.018;6.306;2023-08-24T02:31:23;12.52;;;9.88;;
18899;SDS011;9582;52.018;6.306;2023-08-24T02:33:50;11.45;;;9.05;;
18899;SDS011;9582;52.018;6.306;2023-08-24T02:36:18;14.27;;;10.68;;
18899;SDS011;9582;52.018;6.306;2023-08-24T02:38:44;12.13;;;10.68;;
18899;SDS011;9582;52.018;6.306;2023-08-24T02:41:11;14.10;;;10.63;;
18899;SDS011;9582;52.018;6.306;2023-08-24T02:43:40;14.40;;;10.88;;
18899;SDS011;9582;52.018;6.306;2023-08-24T02:46:07;14.20;;;10.88;;
18899;SDS011;9582;52.018;6.306;2023-08-24T02:48:34;13.50;;;11.30;;
18899;SDS011;9582;52.018;6.306;2023-08-24T02:51:02;12.70;;;11.15;;
18899;SDS011;9582;52.018;6.306;2023-08-24T02:53:32;11.98;;;10.73;;
18899;SDS011;9582;52.018;6.306;2023-08-24T02:55:59;11.18;;;10.07;;
18899;SDS011;9582;52.018;6.306;2023-08-24T02:58:26;14.10;;;10.55;;
18899;SDS011;9582;52.018;6.306;2023-08-24T03:00:53;11.35;;;10.00;;
18899;SDS011;9582;52.018;6.306;2023-08-24T03:03:19;13.18;;;11.20;;
18899;SDS011;9582;52.018;6.306;2023-08-24T03:05:53;14.60;;;11.43;;
18899;SDS011;9582;52.018;6.306;2023-08-24T03:08:20;15.70;;;12.57;;
18899;SDS011;9582;52.018;6.306;2023-08-24T03:10:48;15.23;;;12.27;;
18899;SDS011;9582;52.018;6.306;2023-08-24T03:13:14;15.23;;;12.73;;
18899;SDS011;9582;52.018;6.306;2023-08-24T03:15:41;12.82;;;11.18;;
18899;SDS011;9582;52.018;6.306;2023-08-24T03:18:09;13.90;;;11.23;;
18899;SDS011;9582;52.018;6.306;2023-08-24T03:20:37;16.05;;;12.32;;
18899;SDS011;9582;52.018;6.306;2023-08-24T03:23:03;14.30;;;11.65;;
18899;SDS011;9582;52.018;6.306;2023-08-24T03:25:30;18.35;;;13.13;;
18899;SDS011;9582;52.018;6.306;2023-08-24T03:27:59;16.80;;;13.85;;
18899;SDS011;9582;52.018;6.306;2023-08-24T03:30:27;24.92;;;14.80;;
18899;SDS011;9582;52.018;6.306;2023-08-24T03:32:53;15.32;;;12.52;;
18899;SDS011;9582;52.018;6.306;2023-08-24T03:35:20;19.25;;;15.15;;
18899;SDS011;9582;52.018;6.306;2023-08-24T03:37:47;23.23;;;16.55;;
18899;SDS011;9582;52.018;6.306;2023-08-24T03:40:13;24.90;;;16.83;;
18899;SDS011;9582;52.018;6.306;2023-08-24T03:42:40;22.83;;;16.70;;
18899;SDS011;9582;52.018;6.306;2023-08-24T03:45:08;25.75;;;18.17;;
18899;SDS011;9582;52.018;6.306;2023-08-24T03:47:37;22.70;;;18.38;;
18899;SDS011;9582;52.018;6.306;2023-08-24T03:50:04;19.90;;;16.13;;
18899;SDS011;9582;52.018;6.306;2023-08-24T03:52:31;26.35;;;18.50;;
18899;SDS011;9582;52.018;6.306;2023-08-24T03:54:58;24.75;;;18.02;;
18899;SDS011;9582;52.018;6.306;2023-08-24T03:57:24;26.25;;;18.67;;
18899;SDS011;9582;52.018;6.306;2023-08-24T03:59:51;23.15;;;17.90;;
18899;SDS011;9582;52.018;6.306;2023-08-24T04:02:19;26.65;;;18.55;;
18899;SDS011;9582;52.018;6.306;2023-08-24T04:04:45;23.05;;;18.27;;
18899;SDS011;9582;52.018;6.306;2023-08-24T04:07:12;26.70;;;17.95;;
18899;SDS011;9582;52.018;6.306;2023-08-24T04:09:38;25.60;;;17.17;;
18899;SDS011;9582;52.018;6.306;2023-08-24T04:12:06;23.35;;;17.83;;
18899;SDS011;9582;52.018;6.306;2023-08-24T04:14:33;28.60;;;20.20;;
18899;SDS011;9582;52.018;6.306;2023-08-24T04:17:00;25.45;;;18.33;;
18899;SDS011;9582;52.018;6.306;2023-08-24T04:19:28;27.95;;;20.17;;
18899;SDS011;9582;52.018;6.306;2023-08-24T04:21:54;28.00;;;21.20;;
18899;SDS011;9582;52.018;6.306;2023-08-24T04:24:21;25.73;;;20.25;;
18899;SDS011;9582;52.018;6.306;2023-08-24T04:26:50;30.52;;;19.20;;
18899;SDS011;9582;52.018;6.306;2023-08-24T04:29:16;23.60;;;19.33;;
18899;SDS011;9582;52.018;6.306;2023-08-24T04:31:43;25.15;;;19.45;;
18899;SDS011;9582;52.018;6.306;2023-08-24T04:34:09;26.23;;;19.98;;
18899;SDS011;9582;52.018;6.306;2023-08-24T04:36:38;32.67;;;19.88;;
18899;SDS011;9582;52.018;6.306;2023-08-24T04:39:04;24.83;;;20.20;;
18899;SDS011;9582;52.018;6.306;2023-08-24T04:41:31;26.15;;;19.60;;
18899;SDS011;9582;52.018;6.306;2023-08-24T04:43:57;27.30;;;18.52;;
18899;SDS011;9582;52.018;6.306;2023-08-24T04:46:24;22.40;;;16.98;;
18899;SDS011;9582;52.018;6.306;2023-08-24T04:48:51;27.88;;;18.15;;
18899;SDS011;9582;52.018;6.306;2023-08-24T04:51:17;23.35;;;17.83;;
18899;SDS011;9582;52.018;6.306;2023-08-24T04:53:46;25.15;;;19.10;;
18899;SDS011;9582;52.018;6.306;2023-08-24T04:56:12;24.80;;;18.52;;
18899;SDS011;9582;52.018;6.306;2023-08-24T04:58:39;26.98;;;19.42;;
18899;SDS011;9582;52.018;6.306;2023-08-24T05:01:06;28.73;;;20.10;;
18899;SDS011;9582;52.018;6.306;2023-08-24T05:03:32;28.48;;;19.92;;
18899;SDS011;9582;52.018;6.306;2023-08-24T05:05:59;28.75;;;20.38;;
18899;SDS011;9582;52.018;6.306;2023-08-24T05:08:25;25.00;;;19.35;;
18899;SDS011;9582;52.018;6.306;2023-08-24T05:10:53;25.42;;;20.27;;
18899;SDS011;9582;52.018;6.306;2023-08-24T05:13:19;26.20;;;19.67;;
18899;SDS011;9582;52.018;6.306;2023-08-24T05:15:46;26.88;;;19.85;;
18899;SDS011;9582;52.018;6.306;2023-08-24T05:18:13;21.90;;;18.70;;
18899;SDS011;9582;52.018;6.306;2023-08-24T05:20:39;24.60;;;19.45;;
18899;SDS011;9582;52.018;6.306;2023-08-24T05:23:06;25.13;;;20.67;;
18899;SDS011;9582;52.018;6.306;2023-08-24T05:25:32;28.17;;;20.92;;
18899;SDS011;9582;52.018;6.306;2023-08-24T05:28:00;27.25;;;20.58;;
18899;SDS011;9582;52.018;6.306;2023-08-24T05:30:28;24.98;;;19.75;;
18899;SDS011;9582;52.018;6.306;2023-08-24T05:32:54;24.15;;;19.92;;
18899;SDS011;9582;52.018;6.306;2023-08-24T05:35:21;20.83;;;18.42;;
18899;SDS011;9582;52.018;6.306;2023-08-24T05:37:47;23.08;;;20.08;;
18899;SDS011;9582;52.018;6.306;2023-08-24T05:40:14;24.45;;;19.75;;
18899;SDS011;9582;52.018;6.306;2023-08-24T05:42:40;23.85;;;19.33;;
18899;SDS011;9582;52.018;6.306;2023-08-24T05:45:09;25.70;;;20.30;;
18899;SDS011;9582;52.018;6.306;2023-08-24T05:47:37;21.38;;;18.02;;
18899;SDS011;9582;52.018;6.306;2023-08-24T05:50:04;21.80;;;16.88;;
18899;SDS011;9582;52.018;6.306;2023-08-24T05:52:31;18.45;;;16.45;;
18899;SDS011;9582;52.018;6.306;2023-08-24T05:54:57;21.42;;;16.05;;
18899;SDS011;9582;52.018;6.306;2023-08-24T05:57:24;17.77;;;15.02;;
18899;SDS011;9582;52.018;6.306;2023-08-24T05:59:50;17.80;;;14.90;;
18899;SDS011;9582;52.018;6.306;2023-08-24T06:02:18;17.27;;;14.30;;
18899;SDS011;9582;52.018;6.306;2023-08-24T06:04:44;16.95;;;14.48;;
18899;SDS011;9582;52.018;6.306;2023-08-24T06:07:11;15.88;;;14.10;;
18899;SDS011;9582;52.018;6.306;2023-08-24T06:09:37;14.68;;;13.18;;
18899;SDS011;9582;52.018;6.306;2023-08-24T06:12:04;18.90;;;14.20;;
18899;SDS011;9582;52.018;6.306;2023-08-24T06:14:32;17.70;;;15.00;;
18899;SDS011;9582;52.018;6.306;2023-08-24T06:16:58;17.63;;;13.95;;
18899;SDS011;9582;52.018;6.306;2023-08-24T06:19:26;15.48;;;13.85;;
18899;SDS011;9582;52.018;6.306;2023-08-24T06:21:52;18.60;;;14.45;;
18899;SDS011;9582;52.018;6.306;2023-08-24T06:24:19;16.02;;;14.15;;
18899;SDS011;9582;52.018;6.306;2023-08-24T06:26:46;15.98;;;14.27;;
18899;SDS011;9582;52.018;6.306;2023-08-24T06:29:12;15.55;;;13.70;;
18899;SDS011;9582;52.018;6.306;2023-08-24T06:31:39;15.23;;;13.00;;
18899;SDS011;9582;52.018;6.306;2023-08-24T06:34:06;14.55;;;13.13;;
18899;SDS011;9582;52.018;6.306;2023-08-24T06:36:34;16.25;;;12.57;;
18899;SDS011;9582;52.018;6.306;2023-08-24T06:39:00;14.95;;;12.98;;
18899;SDS011;9582;52.018;6.306;2023-08-24T06:41:32;15.05;;;13.43;;
18899;SDS011;9582;52.018;6.306;2023-08-24T06:44:01;14.82;;;13.32;;
18899;SDS011;9582;52.018;6.306;2023-08-24T06:46:28;17.13;;;13.32;;
18899;SDS011;9582;52.018;6.306;2023-08-24T06:48:55;15.30;;;13.50;;
18899;SDS011;9582;52.018;6.306;2023-08-24T06:51:21;14.40;;;12.75;;
18899;SDS011;9582;52.018;6.306;2023-08-24T06:53:49;13.75;;;12.27;;
18899;SDS011;9582;52.018;6.306;2023-08-24T06:56:16;16.60;;;12.80;;
18899;SDS011;9582;52.018;6.306;2023-08-24T06:58:43;14.43;;;12.93;;
18899;SDS011;9582;52.018;6.306;2023-08-24T07:01:10;14.93;;;13.38;;
18899;SDS011;9582;52.018;6.306;2023-08-24T07:03:37;14.85;;;13.25;;
18899;SDS011;9582;52.018;6.306;2023-08-24T07:06:05;15.55;;;14.05;;
18899;SDS011;9582;52.018;6.306;2023-08-24T07:08:31;16.05;;;13.90;;
18899;SDS011;9582;52.018;6.306;2023-08-24T07:10:59;15.07;;;13.50;;
18899;SDS011;9582;52.018;6.306;2023-08-24T07:13:27;14.57;;;13.15;;
18899;SDS011;9582;52.018;6.306;2023-08-24T07:15:53;15.52;;;14.02;;
18899;SDS011;9582;52.018;6.306;2023-08-24T07:18:20;14.85;;;13.32;;
18899;SDS011;9582;52.018;6.306;2023-08-24T07:20:47;15.20;;;13.70;;
18899;SDS011;9582;52.018;6.306;2023-08-24T07:23:13;15.30;;;13.77;;
18899;SDS011;9582;52.018;6.306;2023-08-24T07:25:40;15.05;;;13.48;;
18899;SDS011;9582;52.018;6.306;2023-08-24T07:28:08;15.30;;;13.75;;
18899;SDS011;9582;52.018;6.306;2023-08-24T07:30:35;16.55;;;12.50;;
18899;SDS011;9582;52.018;6.306;2023-08-24T07:33:02;14.85;;;13.30;;
18899;SDS011;9582;52.018;6.306;2023-08-24T07:35:29;16.98;;;13.65;;
18899;SDS011;9582;52.018;6.306;2023-08-24T07:37:56;15.60;;;13.38;;
18899;SDS011;9582;52.018;6.306;2023-08-24T07:40:22;14.48;;;12.77;;
18899;SDS011;9582;52.018;6.306;2023-08-24T07:42:51;15.05;;;13.48;;
18899;SDS011;9582;52.018;6.306;2023-08-24T07:45:21;15.30;;;13.50;;
18899;SDS011;9582;52.018;6.306;2023-08-24T07:47:49;14.35;;;12.85;;
18899;SDS011;9582;52.018;6.306;2023-08-24T07:50:15;16.88;;;13.40;;
18899;SDS011;9582;52.018;6.306;2023-08-24T07:52:42;15.05;;;13.65;;
18899;SDS011;9582;52.018;6.306;2023-08-24T07:55:08;16.30;;;13.10;;
18899;SDS011;9582;52.018;6.306;2023-08-24T07:57:35;15.15;;;13.55;;
18899;SDS011;9582;52.018;6.306;2023-08-24T08:00:02;16.08;;;14.45;;
18899;SDS011;9582;52.018;6.306;2023-08-24T08:02:39;15.05;;;13.57;;
18899;SDS011;9582;52.018;6.306;2023-08-24T08:05:05;14.90;;;13.40;;
18899;SDS011;9582;52.018;6.306;2023-08-24T08:07:32;13.23;;;12.02;;
18899;SDS011;9582;52.018;6.306;2023-08-24T08:09:59;17.20;;;12.93;;
18899;SDS011;9582;52.018;6.306;2023-08-24T08:12:25;15.52;;;12.32;;
18899;SDS011;9582;52.018;6.306;2023-08-24T08:14:52;13.88;;;12.48;;
18899;SDS011;9582;52.018;6.306;2023-08-24T08:17:19;16.05;;;12.40;;
18899;SDS011;9582;52.018;6.306;2023-08-24T08:19:46;13.63;;;12.23;;
18899;SDS011;9582;52.018;6.306;2023-08-24T08:22:13;13.95;;;11.70;;
18899;SDS011;9582;52.018;6.306;2023-08-24T08:24:39;12.50;;;11.20;;
18899;SDS011;9582;52.018;6.306;2023-08-24T08:27:06;13.40;;;11.68;;
18899;SDS011;9582;52.018;6.306;2023-08-24T08:29:33;14.38;;;12.02;;
18899;SDS011;9582;52.018;6.306;2023-08-24T08:31:59;13.13;;;11.60;;
18899;SDS011;9582;52.018;6.306;2023-08-24T08:34:26;12.30;;;11.00;;
18899;SDS011;9582;52.018;6.306;2023-08-24T08:36:53;14.70;;;11.57;;
18899;SDS011;9582;52.018;6.306;2023-08-24T08:39:20;12.63;;;11.32;;
18899;SDS011;9582;52.018;6.306;2023-08-24T08:41:46;11.98;;;10.63;;
18899;SDS011;9582;52.018;6.306;2023-08-24T08:44:13;13.25;;;10.10;;
18899;SDS011;9582;52.018;6.306;2023-08-24T08:46:41;13.18;;;10.60;;
18899;SDS011;9582;52.018;6.306;2023-08-24T08:49:08;12.52;;;10.52;;
18899;SDS011;9582;52.018;6.306;2023-08-24T08:51:35;11.82;;;10.63;;
18899;SDS011;9582;52.018;6.306;2023-08-24T08:54:04;11.70;;;10.52;;
18899;SDS011;9582;52.018;6.306;2023-08-24T08:56:31;12.52;;;10.60;;
18899;SDS011;9582;52.018;6.306;2023-08-24T08:58:58;12.52;;;10.27;;
18899;SDS011;9582;52.018;6.306;2023-08-24T09:01:26;13.82;;;10.23;;
18899;SDS011;9582;52.018;6.306;2023-08-24T09:03:53;10.70;;;9.60;;
18899;SDS011;9582;52.018;6.306;2023-08-24T09:06:20;11.43;;;10.32;;
18899;SDS011;9582;52.018;6.306;2023-08-24T09:08:47;20.23;;;10.18;;
18899;SDS011;9582;52.018;6.306;2023-08-24T09:11:17;10.95;;;9.10;;
18899;SDS011;9582;52.018;6.306;2023-08-24T09:13:43;10.77;;;9.65;;
18899;SDS011;9582;52.018;6.306;2023-08-24T09:16:10;13.13;;;10.23;;
18899;SDS011;9582;52.018;6.306;2023-08-24T09:18:41;10.68;;;8.85;;
18899;SDS011;9582;52.018;6.306;2023-08-24T09:21:11;10.30;;;9.15;;
18899;SDS011;9582;52.018;6.306;2023-08-24T09:23:38;12.65;;;9.88;;
18899;SDS011;9582;52.018;6.306;2023-08-24T09:26:09;10.82;;;8.80;;
18899;SDS011;9582;52.018;6.306;2023-08-24T09:28:37;10.18;;;9.20;;
18899;SDS011;9582;52.018;6.306;2023-08-24T09:31:05;12.90;;;9.60;;
18899;SDS011;9582;52.018;6.306;2023-08-24T09:33:32;11.20;;;9.10;;
18899;SDS011;9582;52.018;6.306;2023-08-24T09:35:58;10.48;;;8.75;;
18899;SDS011;9582;52.018;6.306;2023-08-24T09:38:28;9.20;;;8.30;;
18899;SDS011;9582;52.018;6.306;2023-08-24T09:40:55;9.05;;;8.15;;
18899;SDS011;9582;52.018;6.306;2023-08-24T09:43:22;10.77;;;8.07;;
18899;SDS011;9582;52.018;6.306;2023-08-24T09:45:52;11.52;;;9.15;;
18899;SDS011;9582;52.018;6.306;2023-08-24T09:48:20;9.95;;;8.95;;
18899;SDS011;9582;52.018;6.306;2023-08-24T09:50:47;10.30;;;8.25;;
18899;SDS011;9582;52.018;6.306;2023-08-24T09:53:16;8.73;;;7.78;;
18899;SDS011;9582;52.018;6.306;2023-08-24T09:55:53;11.63;;;8.20;;
18899;SDS011;9582;52.018;6.306;2023-08-24T09:58:21;9.80;;;8.05;;
18899;SDS011;9582;52.018;6.306;2023-08-24T10:00:48;9.15;;;8.25;;
18899;SDS011;9582;52.018;6.306;2023-08-24T10:03:17;10.23;;;9.20;;
18899;SDS011;9582;52.018;6.306;2023-08-24T10:05:46;11.55;;;9.60;;
18899;SDS011;9582;52.018;6.306;2023-08-24T10:08:15;9.73;;;8.70;;
18899;SDS011;9582;52.018;6.306;2023-08-24T10:10:46;8.85;;;7.75;;
18899;SDS011;9582;52.018;6.306;2023-08-24T10:13:17;10.27;;;7.60;;
18899;SDS011;9582;52.018;6.306;2023-08-24T10:15:47;11.65;;;7.80;;
18899;SDS011;9582;52.018;6.306;2023-08-24T10:18:14;10.00;;;7.78;;
18899;SDS011;9582;52.018;6.306;2023-08-24T10:20:44;10.75;;;8.60;;
18899;SDS011;9582;52.018;6.306;2023-08-24T10:23:12;9.02;;;7.43;;
18899;SDS011;9582;52.018;6.306;2023-08-24T10:25:41;9.07;;;7.80;;
18899;SDS011;9582;52.018;6.306;2023-08-24T10:28:08;9.90;;;7.53;;
18899;SDS011;9582;52.018;6.306;2023-08-24T10:30:36;9.07;;;7.32;;
18899;SDS011;9582;52.018;6.306;2023-08-24T10:33:04;10.30;;;7.65;;
18899;SDS011;9582;52.018;6.306;2023-08-24T10:35:33;7.93;;;7.13;;
18899;SDS011;9582;52.018;6.306;2023-08-24T10:38:00;7.47;;;6.78;;
18899;SDS011;9582;52.018;6.306;2023-08-24T10:40:33;10.63;;;6.28;;
18899;SDS011;9582;52.018;6.306;2023-08-24T10:43:02;11.60;;;6.95;;
18899;SDS011;9582;52.018;6.306;2023-08-24T10:45:42;8.68;;;6.78;;
18899;SDS011;9582;52.018;6.306;2023-08-24T10:48:21;7.30;;;6.60;;
18899;SDS011;9582;52.018;6.306;2023-08-24T10:53:50;8.18;;;6.50;;
18899;SDS011;9582;52.018;6.306;2023-08-24T10:56:19;8.32;;;6.38;;
18899;SDS011;9582;52.018;6.306;2023-08-24T10:58:45;10.13;;;7.28;;
18899;SDS011;9582;52.018;6.306;2023-08-24T11:01:16;8.52;;;6.40;;
18899;SDS011;9582;52.018;6.306;2023-08-24T11:03:48;7.75;;;6.15;;
18899;SDS011;9582;52.018;6.306;2023-08-24T11:06:20;7.90;;;7.13;;
18899;SDS011;9582;52.018;6.306;2023-08-24T11:08:48;10.52;;;6.38;;
18899;SDS011;9582;52.018;6.306;2023-08-24T11:11:18;9.00;;;6.05;;
18899;SDS011;9582;52.018;6.306;2023-08-24T11:16:41;8.98;;;6.43;;
18899;SDS011;9582;52.018;6.306;2023-08-24T11:19:08;6.88;;;5.57;;
18899;SDS011;9582;52.018;6.306;2023-08-24T11:21:37;8.40;;;5.95;;
18899;SDS011;9582;52.018;6.306;2023-08-24T11:24:04;7.72;;;6.35;;
18899;SDS011;9582;52.018;6.306;2023-08-24T11:26:31;6.93;;;6.22;;
18899;SDS011;9582;52.018;6.306;2023-08-24T11:28:58;8.32;;;6.05;;
18899;SDS011;9582;52.018;6.306;2023-08-24T11:31:24;9.43;;;6.03;;
18899;SDS011;9582;52.018;6.306;2023-08-24T11:33:54;6.88;;;6.05;;
18899;SDS011;9582;52.018;6.306;2023-08-24T11:36:21;7.10;;;6.22;;
18899;SDS011;9582;52.018;6.306;2023-08-24T11:38:52;10.20;;;6.47;;
18899;SDS011;9582;52.018;6.306;2023-08-24T11:41:19;7.75;;;6.57;;
18899;SDS011;9582;52.018;6.306;2023-08-24T11:43:47;7.20;;;6.50;;
18899;SDS011;9582;52.018;6.306;2023-08-24T11:46:16;7.53;;;6.43;;
18899;SDS011;9582;52.018;6.306;2023-08-24T11:48:43;9.82;;;6.88;;
18899;SDS011;9582;52.018;6.306;2023-08-24T11:51:10;11.38;;;6.60;;
18899;SDS011;9582;52.018;6.306;2023-08-24T11:53:38;7.82;;;6.53;;
18899;SDS011;9582;52.018;6.306;2023-08-24T11:56:09;7.30;;;6.55;;
18899;SDS011;9582;52.018;6.306;2023-08-24T11:58:37;9.25;;;5.78;;
18899;SDS011;9582;52.018;6.306;2023-08-24T12:01:04;7.03;;;6.30;;
18899;SDS011;9582;52.018;6.306;2023-08-24T12:03:31;7.13;;;5.57;;
18899;SDS011;9582;52.018;6.306;2023-08-24T12:05:59;7.25;;;6.30;;
18899;SDS011;9582;52.018;6.306;2023-08-24T12:08:26;8.38;;;5.68;;
18899;SDS011;9582;52.018;6.306;2023-08-24T12:10:52;6.85;;;5.60;;
18899;SDS011;9582;52.018;6.306;2023-08-24T12:13:20;7.00;;;5.78;;
18899;SDS011;9582;52.018;6.306;2023-08-24T12:15:48;7.55;;;5.47;;
18899;SDS011;9582;52.018;6.306;2023-08-24T12:18:16;6.38;;;5.53;;
18899;SDS011;9582;52.018;6.306;2023-08-24T12:20:43;7.75;;;5.82;;
18899;SDS011;9582;52.018;6.306;2023-08-24T12:23:10;8.32;;;6.32;;
18899;SDS011;9582;52.018;6.306;2023-08-24T12:25:37;6.50;;;5.88;;
18899;SDS011;9582;52.018;6.306;2023-08-24T12:28:08;7.32;;;5.72;;
18899;SDS011;9582;52.018;6.306;2023-08-24T12:30:47;9.43;;;6.75;;
18899;SDS011;9582;52.018;6.306;2023-08-24T12:33:26;7.28;;;6.18;;
18899;SDS011;9582;52.018;6.306;2023-08-24T12:35:54;8.07;;;6.30;;
18899;SDS011;9582;52.018;6.306;2023-08-24T12:38:21;9.32;;;6.45;;
18899;SDS011;9582;52.018;6.306;2023-08-24T12:40:48;9.52;;;7.38;;
18899;SDS011;9582;52.018;6.306;2023-08-24T12:43:15;12.38;;;6.97;;
18899;SDS011;9582;52.018;6.306;2023-08-24T12:45:42;9.68;;;7.13;;
18899;SDS011;9582;52.018;6.306;2023-08-24T12:48:10;7.57;;;6.78;;
18899;SDS011;9582;52.018;6.306;2023-08-24T12:50:38;8.93;;;6.78;;
18899;SDS011;9582;52.018;6.306;2023-08-24T12:53:05;8.70;;;6.60;;
18899;SDS011;9582;52.018;6.306;2023-08-24T12:55:32;8.23;;;7.20;;
18899;SDS011;9582;52.018;6.306;2023-08-24T12:57:58;11.52;;;7.38;;
18899;SDS011;9582;52.018;6.306;2023-08-24T13:00:27;8.68;;;7.05;;
18899;SDS011;9582;52.018;6.306;2023-08-24T13:02:54;11.27;;;7.25;;
18899;SDS011;9582;52.018;6.306;2023-08-24T13:05:22;8.00;;;6.72;;
18899;SDS011;9582;52.018;6.306;2023-08-24T13:07:49;9.38;;;6.70;;
18899;SDS011;9582;52.018;6.306;2023-08-24T13:10:16;7.90;;;6.72;;
18899;SDS011;9582;52.018;6.306;2023-08-24T13:12:42;12.48;;;7.20;;
18899;SDS011;9582;52.018;6.306;2023-08-24T13:15:09;8.32;;;7.32;;
18899;SDS011;9582;52.018;6.306;2023-08-24T13:17:36;8.50;;;6.60;;
18899;SDS011;9582;52.018;6.306;2023-08-24T13:20:03;11.55;;;7.65;;
18899;SDS011;9582;52.018;6.306;2023-08-24T13:22:32;10.95;;;7.55;;
18899;SDS011;9582;52.018;6.306;2023-08-24T13:24:59;9.52;;;7.07;;
18899;SDS011;9582;52.018;6.306;2023-08-24T13:27:25;9.40;;;7.25;;
18899;SDS011;9582;52.018;6.306;2023-08-24T13:29:52;9.77;;;7.40;;
18899;SDS011;9582;52.018;6.306;2023-08-24T13:32:21;10.95;;;7.22;;
18899;SDS011;9582;52.018;6.306;2023-08-24T13:34:48;11.77;;;7.43;;
18899;SDS011;9582;52.018;6.306;2023-08-24T13:37:14;9.40;;;7.45;;
18899;SDS011;9582;52.018;6.306;2023-08-24T13:39:42;9.52;;;7.50;;
18899;SDS011;9582;52.018;6.306;2023-08-24T13:42:09;9.38;;;8.13;;
18899;SDS011;9582;52.018;6.306;2023-08-24T13:44:35;8.27;;;7.50;;
18899;SDS011;9582;52.018;6.306;2023-08-24T13:47:03;9.05;;;8.05;;
18899;SDS011;9582;52.018;6.306;2023-08-24T13:49:29;10.68;;;8.00;;
18899;SDS011;9582;52.018;6.306;2023-08-24T13:51:56;10.85;;;7.65;;
18899;SDS011;9582;52.018;6.306;2023-08-24T13:54:22;9.00;;;7.60;;
18899;SDS011;9582;52.018;6.306;2023-08-24T13:56:52;7.72;;;6.78;;
18899;SDS011;9582;52.018;6.306;2023-08-24T13:59:19;11.43;;;7.40;;
18899;SDS011;9582;52.018;6.306;2023-08-24T14:01:46;9.32;;;7.47;;
18899;SDS011;9582;52.018;6.306;2023-08-24T14:04:13;8.43;;;7.43;;
18899;SDS011;9582;52.018;6.306;2023-08-24T14:06:39;8.75;;;7.65;;
18899;SDS011;9582;52.018;6.306;2023-08-24T14:09:06;8.07;;;7.07;;
18899;SDS011;9582;52.018;6.306;2023-08-24T14:11:33;10.65;;;7.57;;
18899;SDS011;9582;52.018;6.306;2023-08-24T14:14:00;9.95;;;7.60;;
18899;SDS011;9582;52.018;6.306;2023-08-24T14:16:27;9.70;;;7.90;;
18899;SDS011;9582;52.018;6.306;2023-08-24T14:18:53;8.82;;;7.95;;
18899;SDS011;9582;52.018;6.306;2023-08-24T14:21:20;9.05;;;7.80;;
18899;SDS011;9582;52.018;6.306;2023-08-24T14:23:48;8.68;;;7.75;;
18899;SDS011;9582;52.018;6.306;2023-08-24T14:26:15;9.77;;;8.18;;
18899;SDS011;9582;52.018;6.306;2023-08-24T14:28:48;12.38;;;9.25;;
18899;SDS011;9582;52.018;6.306;2023-08-24T14:31:16;10.10;;;8.70;;
18899;SDS011;9582;52.018;6.306;2023-08-24T14:33:43;9.43;;;8.27;;
18899;SDS011;9582;52.018;6.306;2023-08-24T14:36:10;15.13;;;8.82;;
18899;SDS011;9582;52.018;6.306;2023-08-24T14:38:38;10.63;;;8.45;;
18899;SDS011;9582;52.018;6.306;2023-08-24T14:41:05;10.60;;;8.57;;
18899;SDS011;9582;52.018;6.306;2023-08-24T14:43:33;11.45;;;8.63;;
18899;SDS011;9582;52.018;6.306;2023-08-24T14:45:59;14.05;;;9.25;;
18899;SDS011;9582;52.018;6.306;2023-08-24T14:48:27;11.75;;;8.98;;
18899;SDS011;9582;52.018;6.306;2023-08-24T14:50:54;9.55;;;8.40;;
18899;SDS011;9582;52.018;6.306;2023-08-24T14:53:21;9.43;;;8.52;;